HJM weather

Jumex 303 Heliport
Miguel Hidalgo, Distrito Federal, Mexico

Public forecast

Using degrees Celsius for public forecast. Weather courtesy of forecast.io.

METAR (pilot weather report)

Closest report is Licenciado Benito Juarez International Airport, 7.4 nm (13.8 km) E. Retrieved 2019/06/18 09:43 UTC (19 minutes ago):

MMMX 180943Z 27007KT 8SM FEW020 BKN100 OVC200 18/11 A3032 NOSIG RMK 8/577 HZY

TAF (pilot weather forecast)

Closest forecast is Licenciado Benito Juarez International Airport, 7.4 nm (13.8 km) E. Retrieved 2019/06/18 06:00 UTC (4 hours ago):

TAF MMMX 180456Z 1806/1912 02008KT P6SM SCT020 BKN100 TX28/1821Z TN16/1812Z TEMPO 1810/1814 BKN020 FM181600 06005KT P6SM SCT020 FM182200 08012KT P6SM BKN015CB OVC080 TEMPO 1822/1902 2SM TSRA